Time;durP1;ratioP1;P1;durP2;ratioP2;P2;SDS_P1;SDS_P2;PMS_P1;PMS_P2;Temp;Humidity;BMP_temperature;BMP_pressure;BME280_temperature;BME280_humidity;BME280_pressure;Samples;Min_cycle;Max_cycle;Signal;HPM_P1;HPM_P2
2022/07/16 00:02:38;;;;;;;2.80;2.20;;;29.90;99.90;;;;;;5009563;28;20149;-44
2022/07/16 00:05:05;;;;;;;3.53;2.22;;;29.90;99.90;;;;;;5007403;28;20018;-51
2022/07/16 00:07:31;;;;;;;4.57;2.00;;;29.90;99.90;;;;;;4997874;28;20040;-44
2022/07/16 00:09:58;;;;;;;7.43;1.90;;;29.90;99.90;;;;;;5001032;28;20382;-43
2022/07/16 00:12:24;;;;;;;2.03;1.50;;;29.80;99.90;;;;;;4996600;28;20085;-44
2022/07/16 00:14:50;;;;;;;2.22;1.60;;;29.90;99.90;;;;;;5003619;28;20038;-43
2022/07/16 00:17:16;;;;;;;2.80;2.17;;;29.90;99.90;;;;;;4999358;28;20048;-42
2022/07/16 00:19:42;;;;;;;1.90;1.38;;;29.90;99.90;;;;;;5002919;28;20029;-42
2022/07/16 00:22:09;;;;;;;3.72;1.83;;;29.90;99.90;;;;;;4997057;28;20025;-42
2022/07/16 00:24:35;;;;;;;4.82;1.73;;;30.00;99.90;;;;;;5000977;28;20065;-44
2022/07/16 00:27:01;;;;;;;2.08;1.65;;;30.00;99.90;;;;;;5006116;28;20081;-42
2022/07/16 00:29:26;;;;;;;2.50;1.58;;;30.00;99.90;;;;;;4992628;28;20403;-42
2022/07/16 00:31:54;;;;;;;2.55;1.60;;;30.00;99.90;;;;;;5007872;28;20041;-42
2022/07/16 00:34:21;;;;;;;5.40;1.80;;;30.00;99.90;;;;;;5006373;28;20037;-42
2022/07/16 00:36:47;;;;;;;1.90;1.38;;;30.00;99.90;;;;;;5011394;28;20041;-42
2022/07/16 00:39:13;;;;;;;4.57;1.90;;;30.00;99.90;;;;;;4985822;28;20030;-42
2022/07/16 00:41:40;;;;;;;1.80;1.45;;;30.00;99.90;;;;;;5007676;28;20034;-42
2022/07/16 00:44:09;;;;;;;3.60;2.30;;;30.00;99.90;;;;;;5002744;28;20062;-42
2022/07/16 00:46:35;;;;;;;2.33;2.10;;;30.00;99.90;;;;;;5011128;28;20030;-42
2022/07/16 00:49:01;;;;;;;1.92;1.70;;;30.00;99.90;;;;;;5012039;28;20018;-42
2022/07/16 00:51:28;;;;;;;3.40;1.40;;;30.00;99.90;;;;;;5012201;28;20026;-43
2022/07/16 00:53:55;;;;;;;1.83;1.50;;;30.00;99.90;;;;;;5011207;28;20022;-43
2022/07/16 00:56:22;;;;;;;2.40;1.90;;;30.00;99.90;;;;;;5011681;28;20040;-43
2022/07/16 00:58:49;;;;;;;6.70;1.73;;;30.00;99.90;;;;;;5011727;28;20053;-43
2022/07/16 01:01:17;;;;;;;2.78;1.50;;;30.00;99.90;;;;;;4995561;23;20492;-46
2022/07/16 01:03:43;;;;;;;4.47;1.80;;;30.00;99.90;;;;;;4972014;28;20035;-45
2022/07/16 01:06:10;;;;;;;2.42;1.58;;;30.00;99.90;;;;;;4971498;28;20503;-47
2022/07/16 01:08:44;;;;;;;3.67;1.52;;;30.00;99.90;;;;;;4971925;28;20035;-46
2022/07/16 01:11:12;;;;;;;2.20;1.50;;;29.90;99.90;;;;;;4972522;28;20034;-46
2022/07/16 01:13:41;;;;;;;3.33;1.58;;;29.90;99.90;;;;;;4972206;28;20034;-45
2022/07/16 01:16:08;;;;;;;3.60;1.70;;;29.90;99.90;;;;;;4972240;28;20093;-45
2022/07/16 01:18:35;;;;;;;2.38;1.40;;;29.90;99.90;;;;;;4972301;28;20042;-46
2022/07/16 01:21:01;;;;;;;2.33;1.42;;;29.90;99.90;;;;;;4972595;28;20030;-45
2022/07/16 01:23:27;;;;;;;2.65;1.60;;;29.80;99.90;;;;;;4972526;28;20077;-46
2022/07/16 01:25:53;;;;;;;2.55;1.50;;;29.80;99.90;;;;;;4971794;28;20057;-46
2022/07/16 01:28:20;;;;;;;3.03;1.40;;;29.80;99.90;;;;;;4954480;28;20488;-45
2022/07/16 01:30:47;;;;;;;4.57;1.85;;;29.80;99.90;;;;;;4972176;28;20364;-46
2022/07/16 01:33:27;;;;;;;4.63;1.42;;;29.80;99.90;;;;;;4971918;28;20031;-46
2022/07/16 01:35:59;;;;;;;3.58;1.60;;;29.80;99.90;;;;;;4971746;28;20035;-46
2022/07/16 01:38:25;;;;;;;4.47;1.73;;;29.80;99.90;;;;;;4971902;28;20058;-46
2022/07/16 01:40:52;;;;;;;3.22;1.60;;;29.80;99.90;;;;;;4974384;28;20030;-61
2022/07/16 01:43:22;;;;;;;2.50;1.60;;;29.80;99.90;;;;;;4976143;28;20632;-45
2022/07/16 01:45:49;;;;;;;4.18;1.50;;;29.80;99.90;;;;;;4975649;28;20043;-46
2022/07/16 01:48:17;;;;;;;3.85;1.60;;;29.70;99.90;;;;;;4976368;28;20109;-46
2022/07/16 01:50:43;;;;;;;7.18;2.08;;;29.80;99.90;;;;;;4958483;28;20030;-45
2022/07/16 01:53:11;;;;;;;1.70;1.60;;;29.70;99.90;;;;;;4976081;28;20023;-46
2022/07/16 01:55:37;;;;;;;4.47;1.63;;;29.70;99.90;;;;;;4975622;28;20129;-45
2022/07/16 01:58:04;;;;;;;5.03;1.70;;;29.70;99.90;;;;;;4976216;28;20158;-46
2022/07/16 02:00:31;;;;;;;2.88;1.42;;;29.70;99.90;;;;;;4981763;28;20495;-46
2022/07/16 02:02:57;;;;;;;1.20;1.10;;;29.70;99.90;;;;;;4976161;28;20157;-46
2022/07/16 02:05:23;;;;;;;1.42;1.33;;;29.70;99.90;;;;;;4988478;28;20458;-45
2022/07/16 02:07:49;;;;;;;2.75;1.80;;;29.60;99.90;;;;;;4995036;28;20022;-46
2022/07/16 02:10:14;;;;;;;2.15;1.65;;;29.60;99.90;;;;;;4976093;28;20033;-45
2022/07/16 02:12:40;;;;;;;2.30;1.40;;;29.70;99.90;;;;;;4995223;28;20034;-46
2022/07/16 02:15:07;;;;;;;4.40;1.70;;;29.70;99.90;;;;;;4984109;28;20082;-46
2022/07/16 02:17:34;;;;;;;3.53;1.88;;;29.70;99.90;;;;;;4974511;28;20044;-46
2022/07/16 02:20:01;;;;;;;1.93;1.37;;;29.70;99.90;;;;;;4979734;28;20077;-46
2022/07/16 02:22:26;;;;;;;3.17;1.40;;;29.80;99.90;;;;;;4993198;28;20097;-46
2022/07/16 02:24:52;;;;;;;3.80;1.40;;;29.90;99.90;;;;;;4975478;28;20481;-46
2022/07/16 02:27:18;;;;;;;5.35;2.30;;;30.00;99.90;;;;;;4954363;29;20038;-46
2022/07/16 02:29:44;;;;;;;2.75;1.27;;;30.10;99.90;;;;;;4959368;28;20035;-46
2022/07/16 02:32:09;;;;;;;1.58;1.48;;;30.10;99.90;;;;;;4973487;28;20039;-46
2022/07/16 02:34:35;;;;;;;2.30;1.30;;;30.20;99.90;;;;;;4967784;28;20724;-46
2022/07/16 02:37:01;;;;;;;2.65;1.25;;;30.20;99.90;;;;;;4953923;28;20046;-46
2022/07/16 02:39:27;;;;;;;2.05;1.20;;;30.20;99.90;;;;;;4972596;28;20078;-46
2022/07/16 02:41:53;;;;;;;2.10;1.30;;;30.30;99.90;;;;;;4974890;28;20042;-46
2022/07/16 02:44:18;;;;;;;3.35;1.23;;;30.30;99.90;;;;;;4974102;28;20109;-46
2022/07/16 02:46:44;;;;;;;1.92;1.20;;;30.30;99.90;;;;;;4961172;28;20074;-46
2022/07/16 02:49:10;;;;;;;2.30;1.05;;;30.40;99.90;;;;;;4992051;28;20022;-46
2022/07/16 02:51:36;;;;;;;6.72;1.23;;;30.40;99.90;;;;;;4973036;28;20399;-46
2022/07/16 02:54:02;;;;;;;1.52;1.10;;;30.50;99.90;;;;;;4973268;28;20077;-46
2022/07/16 02:56:28;;;;;;;2.00;1.17;;;30.50;99.90;;;;;;4993954;28;20038;-46
2022/07/16 02:58:54;;;;;;;2.03;1.13;;;30.50;99.90;;;;;;4977031;28;20109;-46
2022/07/16 03:01:20;;;;;;;1.92;1.33;;;30.50;99.90;;;;;;5017268;23;20077;-48
2022/07/16 03:03:45;;;;;;;2.05;1.02;;;30.50;99.90;;;;;;4994256;28;20038;-49
2022/07/16 03:06:11;;;;;;;1.88;1.13;;;30.50;99.90;;;;;;5011406;28;20018;-49
2022/07/16 03:08:37;;;;;;;2.08;1.20;;;30.50;99.90;;;;;;5014027;28;20057;-49
2022/07/16 03:11:03;;;;;;;2.80;1.52;;;30.50;99.90;;;;;;4998454;28;20117;-49
2022/07/16 03:13:28;;;;;;;2.03;0.98;;;30.50;99.90;;;;;;4994160;28;20033;-49
2022/07/16 03:15:54;;;;;;;2.60;0.98;;;30.50;99.90;;;;;;4994305;28;20046;-49
2022/07/16 03:18:21;;;;;;;3.33;1.10;;;30.50;99.90;;;;;;4994018;28;20096;-48
2022/07/16 03:20:48;;;;;;;1.30;1.20;;;30.60;99.90;;;;;;4988845;28;20022;-50
2022/07/16 03:23:14;;;;;;;1.30;0.98;;;30.50;99.90;;;;;;5010732;28;20040;-53
2022/07/16 03:25:41;;;;;;;4.60;1.70;;;30.50;99.90;;;;;;4994234;28;20030;-52
2022/07/16 03:28:08;;;;;;;1.95;0.90;;;30.60;99.90;;;;;;4993992;28;20037;-52
2022/07/16 03:30:37;;;;;;;1.35;1.08;;;30.60;99.90;;;;;;4994228;28;20499;-52
2022/07/16 03:33:03;;;;;;;4.50;1.02;;;30.60;99.90;;;;;;4993974;28;20041;-52
2022/07/16 03:35:29;;;;;;;8.02;1.30;;;30.60;99.90;;;;;;4993801;28;20038;-52
2022/07/16 03:40:39;;;;;;;2.40;1.15;;;30.50;99.90;;;;;;5004558;28;20083;-53
2022/07/16 03:43:05;;;;;;;2.08;1.10;;;30.60;99.90;;;;;;5013587;28;20116;-53
2022/07/16 03:45:31;;;;;;;2.78;1.35;;;30.60;99.90;;;;;;5013551;28;20041;-53
2022/07/16 03:47:57;;;;;;;2.03;1.08;;;30.60;99.90;;;;;;5013126;28;20049;-52
2022/07/16 03:50:23;;;;;;;1.38;0.95;;;30.60;99.90;;;;;;4993149;28;20038;-50
2022/07/16 03:52:49;;;;;;;2.35;0.93;;;30.60;99.90;;;;;;4992783;28;20014;-50
2022/07/16 03:55:15;;;;;;;3.92;1.60;;;30.60;99.90;;;;;;5012838;28;20076;-51
2022/07/16 03:57:42;;;;;;;2.97;1.10;;;30.60;99.90;;;;;;4995100;28;20028;-51
2022/07/16 04:00:09;;;;;;;1.27;1.03;;;30.60;99.90;;;;;;5012362;28;20124;-51
2022/07/16 04:02:34;;;;;;;0.80;0.80;;;30.50;99.90;;;;;;4993113;28;20272;-51
2022/07/16 04:05:00;;;;;;;4.70;1.38;;;30.60;99.90;;;;;;4994115;28;20044;-53
2022/07/16 04:07:26;;;;;;;1.13;1.00;;;30.60;99.90;;;;;;4995479;28;20022;-52
2022/07/16 04:09:52;;;;;;;3.60;1.13;;;30.60;99.90;;;;;;5012344;28;20033;-53
2022/07/16 04:12:21;;;;;;;1.92;1.23;;;30.60;99.90;;;;;;5012724;28;20021;-53
2022/07/16 04:14:47;;;;;;;3.05;1.10;;;30.50;99.90;;;;;;5012760;28;20072;-52
2022/07/16 04:17:12;;;;;;;2.30;1.20;;;30.60;99.90;;;;;;4998861;28;20042;-53
2022/07/16 04:19:38;;;;;;;1.80;0.98;;;30.60;99.90;;;;;;5012064;28;20046;-53
2022/07/16 04:22:04;;;;;;;1.35;1.25;;;30.50;99.90;;;;;;4993036;28;20038;-53
2022/07/16 04:24:30;;;;;;;1.70;1.10;;;30.50;99.90;;;;;;4992842;28;20055;-53
2022/07/16 04:26:56;;;;;;;1.27;1.17;;;30.50;99.90;;;;;;4975340;28;20095;-52
2022/07/16 04:29:22;;;;;;;1.35;0.90;;;30.50;99.90;;;;;;5009288;28;20033;-52
2022/07/16 04:31:47;;;;;;;2.15;1.00;;;30.50;99.90;;;;;;4992550;28;20106;-52
2022/07/16 04:34:13;;;;;;;1.35;1.02;;;30.50;99.90;;;;;;4992871;28;20035;-52
2022/07/16 04:36:39;;;;;;;2.22;1.05;;;30.50;99.90;;;;;;4992543;28;20034;-52
2022/07/16 04:39:04;;;;;;;2.35;0.90;;;30.50;99.90;;;;;;5007507;28;20036;-52
2022/07/16 04:41:30;;;;;;;2.30;0.80;;;30.50;99.90;;;;;;4994573;28;20161;-52
2022/07/16 04:43:56;;;;;;;1.30;0.90;;;30.50;99.90;;;;;;4974966;28;20102;-52
2022/07/16 04:46:22;;;;;;;1.35;1.10;;;30.50;99.90;;;;;;4998445;28;20428;-52
2022/07/16 04:48:48;;;;;;;1.83;1.10;;;30.50;99.90;;;;;;4999107;28;20030;-54
2022/07/16 04:51:13;;;;;;;2.50;0.90;;;30.50;99.90;;;;;;5006296;28;20422;-54
2022/07/16 04:53:39;;;;;;;2.85;1.50;;;30.50;99.90;;;;;;5011877;28;20472;-52
2022/07/16 04:56:05;;;;;;;2.28;1.00;;;30.50;99.90;;;;;;5011819;28;20033;-53
2022/07/16 04:58:31;;;;;;;2.85;1.10;;;30.50;99.90;;;;;;4998456;28;20431;-51
2022/07/16 05:00:57;;;;;;;4.07;0.98;;;30.50;99.90;;;;;;5004541;28;20124;-51
2022/07/16 05:03:23;;;;;;;2.38;0.88;;;30.50;99.90;;;;;;5011669;28;20048;-52
2022/07/16 05:05:49;;;;;;;3.38;1.20;;;30.50;99.90;;;;;;5011749;28;20030;-52
2022/07/16 05:08:15;;;;;;;4.80;1.35;;;30.50;99.90;;;;;;5001267;28;20034;-52
2022/07/16 05:10:41;;;;;;;3.10;1.02;;;30.50;99.90;;;;;;4983985;28;20030;-53
2022/07/16 05:13:10;;;;;;;3.05;1.10;;;30.50;99.90;;;;;;4992678;28;20480;-53
2022/07/16 05:15:36;;;;;;;4.20;0.90;;;30.40;99.90;;;;;;4991488;28;20395;-53
2022/07/16 05:18:03;;;;;;;2.03;0.90;;;30.50;99.90;;;;;;5000270;28;20038;-54
2022/07/16 05:20:29;;;;;;;1.38;1.02;;;30.50;99.90;;;;;;4983697;28;20038;-53
2022/07/16 05:22:56;;;;;;;1.73;1.30;;;30.40;99.90;;;;;;4992437;28;20114;-54
2022/07/16 05:25:22;;;;;;;2.30;1.30;;;30.50;99.90;;;;;;4991990;28;20076;-53
2022/07/16 05:27:48;;;;;;;2.75;1.23;;;30.50;99.90;;;;;;4997405;28;20099;-52
2022/07/16 05:30:14;;;;;;;2.33;1.10;;;30.50;99.90;;;;;;5002863;28;20023;-52
2022/07/16 05:32:41;;;;;;;2.25;1.30;;;30.50;99.90;;;;;;4991992;28;20027;-54
2022/07/16 05:35:08;;;;;;;3.08;1.38;;;30.50;99.90;;;;;;4991889;28;20106;-53
2022/07/16 05:37:34;;;;;;;4.28;1.35;;;30.50;99.90;;;;;;4974733;28;20038;-52
2022/07/16 05:40:00;;;;;;;1.85;1.17;;;30.50;99.90;;;;;;4992213;28;20060;-51
2022/07/16 05:42:26;;;;;;;3.47;1.48;;;30.50;99.90;;;;;;4974295;28;20535;-51
2022/07/16 05:44:52;;;;;;;3.10;1.58;;;30.50;99.90;;;;;;4991923;28;20281;-50
2022/07/16 05:47:18;;;;;;;2.95;1.92;;;30.40;99.90;;;;;;4993030;28;20320;-52
2022/07/16 05:49:44;;;;;;;3.00;2.03;;;30.40;99.90;;;;;;5007122;28;20026;-51
2022/07/16 05:52:10;;;;;;;1.58;1.45;;;30.40;99.90;;;;;;4991638;28;20026;-51
2022/07/16 05:54:35;;;;;;;4.32;1.85;;;30.40;99.90;;;;;;4991658;28;20033;-51
2022/07/16 05:57:01;;;;;;;3.30;1.70;;;30.50;99.90;;;;;;4992424;28;20061;-51
2022/07/16 05:59:27;;;;;;;3.10;1.90;;;30.40;99.90;;;;;;5006818;28;20022;-50
2022/07/16 06:01:53;;;;;;;2.40;1.40;;;30.40;99.90;;;;;;5005490;28;20088;-51
2022/07/16 06:04:18;;;;;;;2.47;1.20;;;30.40;99.90;;;;;;5011286;28;20041;-51
2022/07/16 06:06:44;;;;;;;3.67;2.05;;;30.40;99.90;;;;;;5009388;28;20495;-51
2022/07/16 06:09:10;;;;;;;2.70;1.45;;;30.40;99.90;;;;;;5011046;28;20197;-52
2022/07/16 06:11:36;;;;;;;6.93;2.40;;;30.40;99.90;;;;;;4992639;28;20031;-52
2022/07/16 06:14:01;;;;;;;2.72;2.00;;;30.40;99.90;;;;;;4991608;28;20030;-50
2022/07/16 06:16:27;;;;;;;6.93;2.50;;;30.50;99.90;;;;;;4991216;28;20056;-52
2022/07/16 06:18:53;;;;;;;3.63;2.05;;;30.40;99.90;;;;;;4990405;28;20407;-51
2022/07/16 06:21:19;;;;;;;3.55;2.20;;;30.40;99.90;;;;;;4995989;28;20503;-51
2022/07/16 06:23:44;;;;;;;2.20;1.95;;;30.40;99.90;;;;;;4991178;28;20026;-53
2022/07/16 06:26:10;;;;;;;3.35;1.83;;;30.40;99.90;;;;;;5011301;28;20041;-51
2022/07/16 06:28:36;;;;;;;2.38;1.50;;;30.40;99.90;;;;;;4996960;28;20199;-51
2022/07/16 06:31:02;;;;;;;3.53;1.90;;;30.40;99.90;;;;;;5001901;28;20035;-50
2022/07/16 06:33:28;;;;;;;1.60;1.38;;;30.40;99.90;;;;;;4994953;28;20027;-52
2022/07/16 06:35:54;;;;;;;3.20;2.38;;;30.40;99.90;;;;;;4994637;28;20042;-52
2022/07/16 06:38:19;;;;;;;1.88;1.77;;;30.50;99.90;;;;;;4994973;28;20030;-52
2022/07/16 06:40:46;;;;;;;6.15;2.60;;;30.50;99.90;;;;;;5003550;28;20054;-51
2022/07/16 06:43:12;;;;;;;4.93;2.65;;;30.50;99.90;;;;;;5014247;28;20030;-52
2022/07/16 06:45:38;;;;;;;4.60;3.08;;;30.50;99.90;;;;;;5000391;28;20033;-51
2022/07/16 06:48:04;;;;;;;3.03;2.72;;;30.50;99.90;;;;;;4998715;28;20033;-52
2022/07/16 06:50:29;;;;;;;4.63;3.10;;;30.50;99.90;;;;;;5007196;28;20034;-51
2022/07/16 06:52:55;;;;;;;4.97;2.72;;;30.50;99.90;;;;;;4994691;28;20018;-51
2022/07/16 06:55:21;;;;;;;5.60;2.97;;;30.50;99.90;;;;;;4994391;28;20077;-51
2022/07/16 06:57:46;;;;;;;3.60;2.88;;;30.50;99.90;;;;;;4994272;28;20435;-52
2022/07/16 07:00:12;;;;;;;6.75;2.58;;;30.50;99.90;;;;;;4997277;28;20356;-50
2022/07/16 07:02:38;;;;;;;4.82;2.60;;;30.50;99.90;;;;;;4994369;28;20312;-50
2022/07/16 07:05:05;;;;;;;3.83;2.80;;;30.50;99.90;;;;;;4994217;28;20282;-51
2022/07/16 07:07:31;;;;;;;4.57;2.73;;;30.50;99.90;;;;;;4994221;28;20034;-50
2022/07/16 07:09:57;;;;;;;3.90;2.75;;;30.50;99.90;;;;;;5004887;28;20034;-50
2022/07/16 07:12:22;;;;;;;3.28;2.50;;;30.50;99.90;;;;;;4994434;28;20038;-52
2022/07/16 07:14:48;;;;;;;5.07;2.47;;;30.50;99.90;;;;;;4994087;28;20033;-52
2022/07/16 07:17:14;;;;;;;2.92;2.00;;;30.50;99.90;;;;;;5012465;28;20088;-52
2022/07/16 07:19:39;;;;;;;2.83;2.30;;;30.50;99.90;;;;;;4998531;28;20038;-52
2022/07/16 07:22:05;;;;;;;2.95;2.22;;;30.50;99.90;;;;;;5004482;28;20035;-50
2022/07/16 07:24:31;;;;;;;3.00;1.88;;;30.50;99.90;;;;;;4993902;28;20128;-50
2022/07/16 07:26:57;;;;;;;3.70;1.70;;;30.50;99.90;;;;;;4994932;28;20037;-50
2022/07/16 07:29:22;;;;;;;3.58;2.10;;;30.60;99.90;;;;;;4994175;28;20022;-51
2022/07/16 07:31:48;;;;;;;2.08;1.67;;;30.60;99.90;;;;;;5008954;28;20033;-49
2022/07/16 07:34:14;;;;;;;3.40;2.08;;;30.60;99.90;;;;;;5013195;28;20084;-50
2022/07/16 07:36:40;;;;;;;2.33;2.10;;;30.50;99.90;;;;;;5013087;28;20029;-49
2022/07/16 07:39:06;;;;;;;1.88;1.23;;;30.60;99.90;;;;;;5010597;28;20485;-50
2022/07/16 07:41:32;;;;;;;4.32;1.98;;;30.60;99.90;;;;;;5000517;28;20026;-50
2022/07/16 07:43:58;;;;;;;1.65;1.48;;;30.60;99.90;;;;;;4993385;28;20027;-50
2022/07/16 07:46:24;;;;;;;3.05;1.63;;;30.60;99.90;;;;;;5004237;28;20033;-48
2022/07/16 07:48:50;;;;;;;2.60;1.70;;;30.60;99.90;;;;;;5013173;28;20022;-50
2022/07/16 07:51:16;;;;;;;4.20;1.48;;;30.60;99.90;;;;;;5011373;28;20026;-51
2022/07/16 07:53:42;;;;;;;2.90;1.40;;;30.60;99.90;;;;;;5012034;28;20022;-51
2022/07/16 07:56:10;;;;;;;2.05;1.52;;;30.60;99.90;;;;;;5001537;28;20069;-51
2022/07/16 07:58:37;;;;;;;1.85;1.38;;;30.60;99.90;;;;;;5012885;28;20100;-51
2022/07/16 08:01:03;;;;;;;3.40;1.50;;;30.60;99.90;;;;;;5010979;28;20534;-51
2022/07/16 08:03:29;;;;;;;4.20;1.65;;;30.60;99.90;;;;;;5012734;28;20059;-51
2022/07/16 08:05:54;;;;;;;2.42;1.50;;;30.60;99.90;;;;;;5005956;28;20514;-51
2022/07/16 08:08:20;;;;;;;2.47;1.40;;;30.60;99.90;;;;;;4994152;28;20034;-51
2022/07/16 08:10:46;;;;;;;4.40;1.77;;;30.60;99.90;;;;;;4993033;28;20029;-51
2022/07/16 08:13:12;;;;;;;1.58;1.45;;;30.60;99.90;;;;;;4992983;28;20041;-51
2022/07/16 08:15:38;;;;;;;3.65;1.30;;;30.60;99.90;;;;;;4993908;28;20482;-51
2022/07/16 08:18:03;;;;;;;1.58;1.48;;;30.60;99.90;;;;;;4999308;28;20038;-50
2022/07/16 08:20:29;;;;;;;2.20;1.58;;;30.60;99.90;;;;;;5004805;28;20077;-49
2022/07/16 08:22:55;;;;;;;4.50;1.60;;;30.60;99.90;;;;;;5000200;28;20385;-49
2022/07/16 08:28:05;;;;;;;2.42;1.83;;;30.60;99.90;;;;;;5002782;28;20084;-49
2022/07/16 08:30:31;;;;;;;4.88;2.38;;;30.70;99.90;;;;;;5002092;28;20057;-49
2022/07/16 08:32:58;;;;;;;3.90;2.15;;;30.70;99.90;;;;;;5004951;28;20030;-52
2022/07/16 08:35:23;;;;;;;2.97;2.20;;;30.60;99.90;;;;;;4999436;28;20472;-52
2022/07/16 08:37:49;;;;;;;3.45;2.00;;;30.70;99.90;;;;;;5002410;28;20036;-52
2022/07/16 08:40:21;;;;;;;2.30;1.92;;;30.70;99.90;;;;;;5003879;28;20022;-51
2022/07/16 08:42:47;;;;;;;2.30;1.70;;;30.70;99.90;;;;;;4992695;28;20065;-53
2022/07/16 08:45:15;;;;;;;4.20;1.75;;;30.70;99.90;;;;;;5000143;28;20033;-50
2022/07/16 08:47:41;;;;;;;2.35;1.60;;;30.70;99.90;;;;;;5001048;28;20457;-52
2022/07/16 08:50:10;;;;;;;2.38;1.67;;;30.70;99.90;;;;;;5001261;28;20040;-52
2022/07/16 08:52:41;;;;;;;1.92;1.50;;;30.70;99.90;;;;;;5000458;28;20454;-52
2022/07/16 08:55:08;;;;;;;2.00;1.10;;;30.80;99.90;;;;;;4992619;28;20022;-51
2022/07/16 08:57:37;;;;;;;2.77;1.40;;;30.80;99.90;;;;;;4996060;28;20126;-52
2022/07/16 09:00:04;;;;;;;2.85;1.50;;;30.80;99.90;;;;;;5010733;28;20050;-48
2022/07/16 09:02:30;;;;;;;1.23;1.13;;;30.80;99.90;;;;;;4993343;28;20030;-49
2022/07/16 09:04:56;;;;;;;2.40;1.30;;;30.80;99.90;;;;;;5003946;28;20041;-50
2022/07/16 09:07:22;;;;;;;9.43;3.60;;;30.80;99.90;;;;;;5005839;28;20510;-51
2022/07/16 09:09:47;;;;;;;17.70;3.50;;;30.80;99.90;;;;;;5011762;28;20041;-53
2022/07/16 09:12:41;;;;;;;11.82;3.88;;;30.80;99.90;;;;;;5011697;28;20380;-51
2022/07/16 09:15:30;;;;;;;50.17;33.60;;;30.80;99.90;;;;;;4995583;28;20519;-52
2022/07/16 09:18:15;;;;;;;27.75;23.00;;;30.90;99.90;;;;;;4992612;28;20061;-54
2022/07/16 09:20:43;;;;;;;41.97;29.67;;;30.90;99.90;;;;;;4991707;28;20030;-55
2022/07/16 09:23:21;;;;;;;25.40;21.38;;;30.90;99.90;;;;;;4991769;28;20109;-55
2022/07/16 09:25:50;;;;;;;23.85;19.58;;;30.90;99.90;;;;;;5001045;28;20474;-56
2022/07/16 09:28:15;;;;;;;23.85;18.00;;;31.00;99.90;;;;;;5002565;28;20030;-56
2022/07/16 09:30:42;;;;;;;16.92;10.95;;;31.00;99.90;;;;;;4997480;28;20029;-53
2022/07/16 09:33:19;;;;;;;15.60;10.70;;;31.00;99.90;;;;;;4990977;28;20026;-55
2022/07/16 09:35:47;;;;;;;7.50;5.28;;;31.00;99.90;;;;;;4992687;28;20130;-53
2022/07/16 09:38:14;;;;;;;6.72;5.82;;;31.10;99.90;;;;;;5003776;28;20038;-54
2022/07/16 09:40:46;;;;;;;3.38;3.00;;;31.10;99.90;;;;;;5000076;28;20033;-55
2022/07/16 09:43:12;;;;;;;10.77;4.00;;;31.10;99.90;;;;;;5002362;28;20060;-52
2022/07/16 09:45:39;;;;;;;6.25;1.92;;;31.10;99.90;;;;;;5009285;28;20014;-55
2022/07/16 09:48:23;;;;;;;4.63;2.03;;;31.20;99.90;;;;;;4997904;28;20034;-50
2022/07/16 09:50:51;;;;;;;7.10;2.20;;;31.20;99.90;;;;;;4996017;28;20118;-53
2022/07/16 09:53:17;;;;;;;;;;;31.20;99.90;;;;;;5000607;28;20018;-53
2022/07/16 09:56:03;;;;;;;2.03;1.25;;;31.30;99.90;;;;;;5000053;28;19917;-54
2022/07/16 09:58:29;;;;;;;1.63;1.52;;;31.30;99.90;;;;;;5002013;28;20117;-53
2022/07/16 10:00:56;;;;;;;5.80;1.83;;;31.30;99.90;;;;;;5000757;28;20078;-50
2022/07/16 10:03:22;;;;;;;1.50;1.40;;;31.30;99.90;;;;;;5004627;28;20113;-51
2022/07/16 10:05:48;;;;;;;1.55;1.20;;;31.30;99.90;;;;;;5003608;28;20446;-50
2022/07/16 10:08:15;;;;;;;2.97;1.42;;;31.30;99.90;;;;;;5000790;28;20391;-53
2022/07/16 10:10:41;;;;;;;17.63;2.30;;;31.30;99.90;;;;;;5003175;28;20049;-52
2022/07/16 10:13:09;;;;;;;2.78;1.17;;;31.30;99.90;;;;;;4996735;28;20030;-51
2022/07/16 10:15:35;;;;;;;1.98;1.60;;;31.40;99.90;;;;;;4998137;28;20034;-55
2022/07/16 10:18:01;;;;;;;3.88;1.88;;;31.50;99.90;;;;;;4995015;28;20023;-50
2022/07/16 10:20:34;;;;;;;1.63;1.50;;;31.60;99.90;;;;;;4996034;28;20035;-57
2022/07/16 10:23:05;;;;;;;8.43;1.40;;;31.60;99.90;;;;;;5001481;28;20077;-51
2022/07/16 10:25:33;;;;;;;1.58;1.13;;;31.70;99.90;;;;;;4995062;28;20031;-54
2022/07/16 10:27:59;;;;;;;2.28;1.55;;;31.60;99.90;;;;;;5009866;28;20506;-54
2022/07/16 10:30:26;;;;;;;2.33;1.30;;;31.70;99.90;;;;;;5010915;28;20030;-57
2022/07/16 10:33:05;;;;;;;2.42;1.35;;;31.70;99.90;;;;;;5013402;28;20030;-54
2022/07/16 10:35:39;;;;;;;1.52;1.10;;;31.80;99.90;;;;;;4994688;28;20035;-59
2022/07/16 10:38:23;;;;;;;2.55;1.20;;;31.80;99.90;;;;;;4995119;28;20018;-58
2022/07/16 10:41:15;;;;;;;2.40;0.90;;;31.80;99.90;;;;;;4998555;28;20152;-58
2022/07/16 10:43:42;;;;;;;2.33;1.02;;;31.90;99.90;;;;;;4997956;28;20034;-55
2022/07/16 10:46:10;;;;;;;5.18;1.50;;;31.90;99.90;;;;;;5007567;28;20029;-57
2022/07/16 10:48:39;;;;;;;2.03;1.27;;;31.90;99.90;;;;;;5004443;28;20050;-59
2022/07/16 10:51:19;;;;;;;2.05;1.33;;;32.00;99.90;;;;;;4997875;28;20065;-54
2022/07/16 10:53:57;;;;;;;1.33;1.00;;;32.00;99.90;;;;;;5004962;28;20113;-59
2022/07/16 10:56:49;;;;;;;2.17;1.30;;;32.00;99.90;;;;;;5000936;28;20130;-59
2022/07/16 10:59:19;;;;;;;1.13;0.90;;;32.10;99.90;;;;;;4994275;28;20042;-54
2022/07/16 11:01:47;;;;;;;1.73;1.10;;;32.20;99.90;;;;;;5006501;28;20054;-52
2022/07/16 11:04:14;;;;;;;4.63;1.50;;;32.30;99.90;;;;;;5000773;28;20032;-56
2022/07/16 11:06:41;;;;;;;9.48;1.08;;;32.40;99.90;;;;;;4995446;28;20023;-58
2022/07/16 11:09:08;;;;;;;1.27;1.10;;;32.50;99.90;;;;;;4995531;28;20450;-59
2022/07/16 11:11:36;;;;;;;1.98;1.00;;;32.50;99.90;;;;;;5000426;28;20471;-58
2022/07/16 11:14:03;;;;;;;1.30;1.10;;;32.60;99.90;;;;;;4996535;28;20065;-56
2022/07/16 11:16:29;;;;;;;3.85;1.30;;;32.70;99.90;;;;;;4998583;28;20038;-57
2022/07/16 11:18:58;;;;;;;3.60;1.60;;;32.70;99.90;;;;;;4993803;28;20050;-66
2022/07/16 11:21:25;;;;;;;5.93;5.07;;;32.70;99.90;;;;;;5011837;28;20480;-53
2022/07/16 11:23:56;;;;;;;4.83;2.03;;;32.80;99.90;;;;;;5013288;28;20502;-56
2022/07/16 11:26:23;;;;;;;1.40;1.15;;;32.80;99.90;;;;;;5007553;28;20777;-57
2022/07/16 11:28:53;;;;;;;1.95;1.27;;;32.90;99.90;;;;;;4994073;28;20030;-59
2022/07/16 11:31:37;;;;;;;3.20;1.40;;;32.90;99.90;;;;;;5005845;28;20391;-57
2022/07/16 11:34:08;;;;;;;12.13;1.48;;;32.90;99.90;;;;;;4995939;28;20038;-65
2022/07/16 11:36:44;;;;;;;9.65;1.55;;;33.00;99.90;;;;;;4996617;28;20034;-54
2022/07/16 11:39:14;;;;;;;6.70;1.58;;;33.00;99.90;;;;;;4995853;28;20034;-46
2022/07/16 11:41:48;;;;;;;3.25;1.25;;;32.70;99.90;;;;;;4988242;28;20026;-45
2022/07/16 11:44:23;;;;;;;3.83;1.38;;;32.60;99.90;;;;;;4993263;28;20077;-47
2022/07/16 11:46:53;;;;;;;2.13;1.10;;;32.50;99.90;;;;;;4993229;28;20089;-45
2022/07/16 11:49:24;;;;;;;5.25;1.40;;;32.40;99.90;;;;;;5005030;28;20072;-44
2022/07/16 11:51:50;;;;;;;4.05;1.55;;;32.40;99.90;;;;;;4975895;28;20353;-44
2022/07/16 11:54:17;;;;;;;2.08;1.40;;;32.40;99.90;;;;;;5006150;28;20166;-43
2022/07/16 11:56:42;;;;;;;1.65;1.38;;;32.30;99.90;;;;;;4995450;28;20046;-54
2022/07/16 11:59:19;;;;;;;3.05;1.40;;;32.20;99.90;;;;;;4996662;28;20030;-53
2022/07/16 12:01:45;;;;;;;5.73;1.40;;;32.20;99.90;;;;;;4999566;28;20058;-55
2022/07/16 12:04:11;;;;;;;18.00;2.05;;;32.20;99.90;;;;;;5006890;28;20120;-49
2022/07/16 12:06:37;;;;;;;5.88;1.67;;;32.10;99.90;;;;;;5012478;28;20459;-54
2022/07/16 12:09:03;;;;;;;4.63;1.73;;;31.80;99.90;;;;;;5008325;28;20057;-56
2022/07/16 12:11:34;;;;;;;3.42;1.70;;;31.20;99.90;;;;;;5011749;28;20080;-54
2022/07/16 12:14:02;;;;;;;2.88;1.55;;;30.50;99.90;;;;;;4998501;28;20022;-54
2022/07/16 12:16:28;;;;;;;2.72;1.65;;;30.00;99.90;;;;;;5004750;28;20107;-54
2022/07/16 12:19:02;;;;;;;2.17;1.97;;;29.50;99.90;;;;;;4985604;28;20037;-54
2022/07/16 12:21:37;;;;;;;3.05;2.00;;;29.10;99.90;;;;;;4999297;28;20764;-54
2022/07/16 12:24:04;;;;;;;3.90;2.28;;;28.70;99.90;;;;;;4996419;28;20021;-54
2022/07/16 12:26:39;;;;;;;2.55;2.10;;;28.40;99.90;;;;;;5004004;28;20029;-58
2022/07/16 12:29:07;;;;;;;3.03;2.08;;;28.00;99.90;;;;;;5003217;28;20038;-54
2022/07/16 12:31:34;;;;;;;2.80;1.63;;;27.70;99.90;;;;;;4999859;28;20519;-59
2022/07/16 12:34:01;;;;;;;;;;;27.60;99.90;;;;;;5004644;28;20087;-59
2022/07/16 12:36:34;;;;;;;2.20;2.00;;;27.40;99.90;;;;;;5001988;28;19913;-59
2022/07/16 12:39:03;;;;;;;2.10;1.90;;;27.20;99.90;;;;;;5001347;28;20495;-57
2022/07/16 12:41:42;;;;;;;3.25;2.40;;;27.00;99.90;;;;;;5002908;28;20100;-57
2022/07/16 12:44:12;;;;;;;2.80;2.13;;;26.80;99.90;;;;;;4996607;28;20045;-54
2022/07/16 12:46:43;;;;;;;6.57;2.60;;;26.80;99.90;;;;;;5005206;28;20034;-56
2022/07/16 12:49:14;;;;;;;5.53;2.20;;;26.80;99.90;;;;;;4997404;28;20116;-49
2022/07/16 12:51:43;;;;;;;3.67;2.15;;;26.70;99.90;;;;;;4999539;28;20027;-45
2022/07/16 12:54:10;;;;;;;3.50;2.92;;;26.70;99.90;;;;;;4993510;28;20027;-55